George Bush Intercontinental Houston Airport
KIAH : rendu visible

Aérodrome :











RETROUVEZ-NOUS SUR...

 
LOGIN :

S'inscrire | Disclaimer

   EN    FR    IT 

 









Légende :    VFR   VFR Marginal   IFR   IFR Intensif   IFR Très Intensif
Visi : 
Plafond : 
>= 8 km
>= 3000ft
5 à 8 km
1000 à 3000 ft
1500m à 5 km
500 à 1000 ft
800 à 1500m
200 à 500 ft
< 800m
< 200 ft
Symboles :   Orages  Brouillard  Fortes neiges  Fortes précipitations  Vent > 20 kt






- Altitude de l'aérodrome : 97 ft
- Code IATA : IAH


KIAH - George Bush Intercontinental Houston

DERNIER METAR :
  • 271653Z VRB05KT 10SM CLR 11/M06 A3045 RMK AO2 SLP310 T01061056

METARs EXPIRÉS :
  • 271553Z 04003KT 10SM CLR 09/M03 A3046 RMK AO2 SLP316 T00891033

TAF KIAH
Valide du 27 à 18h jusqu'au 29 à 00h UTC


271723Z 2718/2824 30005KT P6SM SKC
FM280000 VRB03KT P6SM SKC
FM281500 28008KT P6SM SKC



MET'MAP, la Météo Aéronautique d'un coup d'oeil ! - Copyright ORBIFLY Décembre 2007 - Disclaimer

ORBIFLY MET'MAP TEAM :

Programmation & Développement : Alexandra Zaïnal
Sur une idée originale de : Baudouin d'Aumeries
Assistance à la programmation : Marc-Olivier Méhu
Soutien technique & logistique : Manuel Goepfert

Contact : metmap@orbifly.com




SOURCES & CREDITS :

   NOAA       Earth
Advisory